createdAt,value
2022-12-13T00:02:00.412Z,89.11
2022-12-13T00:04:28.631Z,87.30
2022-12-13T00:06:56.974Z,87.81
2022-12-13T00:09:25.499Z,87.67
2022-12-13T00:11:55.054Z,87.03
2022-12-13T00:14:23.287Z,87.08
2022-12-13T00:16:52.909Z,86.50
2022-12-13T00:19:21.100Z,86.87
2022-12-13T00:21:49.408Z,87.22
2022-12-13T00:24:17.541Z,87.80
2022-12-13T00:26:47.123Z,89.66
2022-12-13T00:29:15.850Z,90.10
2022-12-13T00:32:01.085Z,92.97
2022-12-13T00:34:30.133Z,92.57
2022-12-13T00:36:59.558Z,90.62
2022-12-13T00:39:28.393Z,88.02
2022-12-13T00:41:57.457Z,90.26
2022-12-13T00:44:26.021Z,89.87
2022-12-13T00:46:54.840Z,88.46
2022-12-13T00:49:24.112Z,87.40
2022-12-13T00:51:53.654Z,86.43
2022-12-13T00:54:21.773Z,84.50
2022-12-13T00:56:51.795Z,82.70
2022-12-13T00:59:21.048Z,83.38
2022-12-13T01:01:49.198Z,82.91
2022-12-13T01:04:18.377Z,81.69
2022-12-13T01:06:50.211Z,81.87
2022-12-13T01:09:21.980Z,81.44
2022-12-13T01:11:51.272Z,81.47
2022-12-13T01:14:19.782Z,81.67
2022-12-13T01:16:47.997Z,82.44
2022-12-13T01:19:17.517Z,83.25
2022-12-13T01:21:45.575Z,83.58
2022-12-13T01:24:14.171Z,83.49
2022-12-13T01:26:42.236Z,83.64
2022-12-13T01:29:11.923Z,82.40
2022-12-13T01:31:42.026Z,82.99
2022-12-13T01:34:15.656Z,81.82
2022-12-13T01:36:45.562Z,81.90
2022-12-13T01:39:16.655Z,82.83
2022-12-13T01:41:47.078Z,82.31
2022-12-13T01:44:52.981Z,82.29
2022-12-13T01:47:59.324Z,82.66
2022-12-13T01:50:36.404Z,81.44
2022-12-13T01:53:08.296Z,81.47
2022-12-13T01:55:41.667Z,81.34
2022-12-13T01:58:11.995Z,79.66
2022-12-13T02:00:44.034Z,77.96
2022-12-13T02:03:21.198Z,78.04
2022-12-13T02:06:07.213Z,77.43
2022-12-13T02:08:36.351Z,76.99
2022-12-13T02:11:08.134Z,76.95
2022-12-13T02:13:37.853Z,74.88
2022-12-13T02:16:12.860Z,75.73
2022-12-13T02:19:12.030Z,77.35
2022-12-13T02:22:00.404Z,79.59
2022-12-13T02:24:58.905Z,81.27
2022-12-13T02:28:02.258Z,81.76
2022-12-13T02:30:40.239Z,84.05
2022-12-13T02:33:24.345Z,84.00
2022-12-13T02:36:06.677Z,83.54
2022-12-13T02:38:50.367Z,84.19
2022-12-13T02:41:27.558Z,84.33
2022-12-13T02:44:22.161Z,84.81
2022-12-13T02:47:03.608Z,84.36
2022-12-13T02:49:39.066Z,83.52
2022-12-13T02:52:12.647Z,84.04
2022-12-13T02:54:42.863Z,83.80
2022-12-13T02:57:32.498Z,82.01
2022-12-13T03:00:05.977Z,81.81
2022-12-13T03:02:49.938Z,80.45
2022-12-13T03:05:54.876Z,79.78
2022-12-13T03:08:47.079Z,79.65
2022-12-13T03:11:20.367Z,80.63
2022-12-13T03:14:03.551Z,80.37
2022-12-13T03:16:44.241Z,79.46
2022-12-13T03:19:15.142Z,77.90
2022-12-13T03:21:49.190Z,76.51
2022-12-13T03:24:19.658Z,75.91
2022-12-13T03:26:51.264Z,76.79
2022-12-13T03:29:23.579Z,77.62
2022-12-13T03:31:54.319Z,78.27
2022-12-13T03:34:23.753Z,77.74
2022-12-13T03:36:53.531Z,77.78
2022-12-13T03:39:22.978Z,77.66
2022-12-13T03:41:52.947Z,76.90
2022-12-13T03:44:21.985Z,76.62
2022-12-13T03:46:50.482Z,75.83
2022-12-13T03:49:18.528Z,75.66
2022-12-13T03:51:46.943Z,75.86
2022-12-13T03:54:15.049Z,75.10
2022-12-13T03:56:43.391Z,74.42
2022-12-13T03:59:11.541Z,73.49
2022-12-13T04:01:39.990Z,72.77
2022-12-13T04:04:08.117Z,72.90
2022-12-13T04:06:37.812Z,73.51
2022-12-13T04:09:05.797Z,74.05
2022-12-13T04:11:52.628Z,73.56
2022-12-13T04:14:22.177Z,72.20
2022-12-13T04:16:53.694Z,73.08
2022-12-13T04:19:22.912Z,73.47
2022-12-13T04:21:54.678Z,73.33
2022-12-13T04:24:30.921Z,74.39
2022-12-13T04:27:02.000Z,73.77
2022-12-13T04:29:34.070Z,69.44
2022-12-13T04:32:25.920Z,70.25
2022-12-13T04:35:00.849Z,74.06
2022-12-13T04:37:31.330Z,73.38
2022-12-13T04:40:00.546Z,74.28
2022-12-13T04:42:30.208Z,75.47
2022-12-13T04:44:58.298Z,78.67
2022-12-13T04:47:26.610Z,77.98
2022-12-13T04:49:55.380Z,79.88
2022-12-13T04:52:23.798Z,79.89
2022-12-13T04:54:55.584Z,80.26
2022-12-13T04:57:25.718Z,79.80
2022-12-13T04:59:53.837Z,79.34
2022-12-13T05:02:24.461Z,79.25
2022-12-13T05:04:53.607Z,79.25
2022-12-13T05:07:25.956Z,79.25
2022-12-13T05:09:54.388Z,79.16
2022-12-13T05:12:25.312Z,78.22
2022-12-13T05:14:54.306Z,77.96
2022-12-13T05:17:22.736Z,77.87
2022-12-13T05:19:50.677Z,78.21
2022-12-13T05:22:20.756Z,79.22
2022-12-13T05:24:49.542Z,79.44
2022-12-13T05:27:24.640Z,79.41
2022-12-13T05:30:04.152Z,79.88
2022-12-13T05:32:44.166Z,80.13
2022-12-13T05:35:22.358Z,80.61
2022-12-13T05:37:54.502Z,80.61
2022-12-13T05:40:24.832Z,80.91
2022-12-13T05:43:01.209Z,80.83
2022-12-13T05:45:31.403Z,81.47
2022-12-13T05:48:00.230Z,81.43
2022-12-13T05:50:28.157Z,81.77
2022-12-13T05:52:57.203Z,82.54
2022-12-13T05:55:25.214Z,82.06
2022-12-13T05:57:53.566Z,81.40
2022-12-13T06:00:30.996Z,81.65
2022-12-13T06:03:01.918Z,79.87
2022-12-13T06:05:31.448Z,78.52
2022-12-13T06:08:00.819Z,77.64
2022-12-13T06:10:34.018Z,77.21
2022-12-13T06:13:21.674Z,77.14
2022-12-13T06:16:01.391Z,76.64
2022-12-13T06:18:32.741Z,76.63
2022-12-13T06:21:03.662Z,76.32
2022-12-13T06:23:34.019Z,75.96
2022-12-13T06:26:07.367Z,75.39
2022-12-13T06:28:36.019Z,75.67
2022-12-13T06:31:05.279Z,75.66
2022-12-13T06:33:37.296Z,75.26
2022-12-13T06:41:11.747Z,74.15
2022-12-13T06:43:47.810Z,74.92
2022-12-13T06:46:17.448Z,74.01
2022-12-13T06:48:46.123Z,72.75
2022-12-13T06:51:22.773Z,73.31
2022-12-13T06:53:52.998Z,72.35
2022-12-13T06:56:21.125Z,71.71
2022-12-13T06:58:49.779Z,70.97
2022-12-13T07:01:24.192Z,71.43
2022-12-13T07:03:58.014Z,72.05
2022-12-13T07:06:27.262Z,71.69
2022-12-13T07:08:58.383Z,71.01
2022-12-13T07:11:29.396Z,70.65
2022-12-13T07:13:58.054Z,70.91
2022-12-13T07:16:28.822Z,70.25
2022-12-13T07:19:01.219Z,69.90
2022-12-13T07:21:30.988Z,70.81
2022-12-13T07:23:59.475Z,70.29
2022-12-13T07:26:27.644Z,70.97
2022-12-13T07:28:56.345Z,71.79
2022-12-13T07:31:25.920Z,71.44
2022-12-13T07:33:54.944Z,72.03
2022-12-13T07:36:24.751Z,72.25
2022-12-13T07:38:57.963Z,72.66
2022-12-13T07:41:27.552Z,73.50
2022-12-13T07:43:56.757Z,73.00
2022-12-13T07:46:32.606Z,74.18
2022-12-13T07:49:04.360Z,74.33
2022-12-13T07:51:35.490Z,74.23
2022-12-13T07:54:06.891Z,74.61
2022-12-13T07:56:36.583Z,74.35
2022-12-13T07:59:04.943Z,74.52
2022-12-13T08:01:37.073Z,74.74
2022-12-13T08:04:06.824Z,74.78
2022-12-13T08:06:37.867Z,74.25
2022-12-13T08:09:06.638Z,74.35
2022-12-13T08:11:34.840Z,73.76
2022-12-13T08:14:03.305Z,73.86
2022-12-13T08:16:31.335Z,72.96
2022-12-13T08:19:03.087Z,74.82
2022-12-13T08:21:57.982Z,75.23
2022-12-13T08:24:31.175Z,75.90
2022-12-13T08:27:02.446Z,76.22
2022-12-13T08:29:34.219Z,76.54
2022-12-13T08:32:06.121Z,76.08
2022-12-13T08:34:34.541Z,75.54
2022-12-13T08:37:03.994Z,74.92
2022-12-13T08:39:37.603Z,74.75
2022-12-13T08:42:14.640Z,75.46
2022-12-13T08:44:47.805Z,74.50
2022-12-13T08:47:24.420Z,74.63
2022-12-13T08:50:02.015Z,75.35
2022-12-13T08:52:40.070Z,74.97
2022-12-13T08:55:14.925Z,75.92
2022-12-13T08:57:43.855Z,74.45
2022-12-13T09:00:15.135Z,73.92
2022-12-13T09:02:43.759Z,73.80
2022-12-13T09:05:32.946Z,73.03
2022-12-13T09:08:24.867Z,73.04
2022-12-13T09:10:59.394Z,71.49
2022-12-13T09:13:33.682Z,71.60
2022-12-13T09:16:13.840Z,69.98
2022-12-13T09:18:43.071Z,69.79
2022-12-13T09:21:22.497Z,69.10
2022-12-13T09:24:02.497Z,70.06
2022-12-13T09:26:37.688Z,69.61
2022-12-13T09:29:11.709Z,69.64
2022-12-13T09:31:41.454Z,69.13
2022-12-13T09:34:11.013Z,68.91
2022-12-13T09:36:39.599Z,69.69
2022-12-13T09:39:07.697Z,69.33
2022-12-13T09:41:41.422Z,67.39
2022-12-13T09:44:32.153Z,68.49
2022-12-13T09:47:14.095Z,68.56
2022-12-13T09:49:51.726Z,65.74
2022-12-13T09:52:25.672Z,66.02
2022-12-13T09:54:57.296Z,66.59
2022-12-13T09:57:33.912Z,66.38
2022-12-13T10:00:11.345Z,66.12
2022-12-13T10:02:52.195Z,66.12
2022-12-13T10:05:33.879Z,66.26
2022-12-13T10:08:37.495Z,66.97
2022-12-13T10:11:05.684Z,67.94
2022-12-13T10:13:42.507Z,67.22
2022-12-13T10:16:26.512Z,67.37
2022-12-13T10:19:28.856Z,68.64
2022-12-13T10:22:02.839Z,67.83
2022-12-13T10:25:00.399Z,67.80
2022-12-13T10:27:36.805Z,67.78
2022-12-13T10:30:12.792Z,67.19
2022-12-13T10:32:55.284Z,66.86
2022-12-13T10:35:30.733Z,66.37
2022-12-13T10:38:31.608Z,65.70
2022-12-13T10:41:01.645Z,66.15
2022-12-13T10:43:33.335Z,65.82
2022-12-13T10:46:04.341Z,65.29
2022-12-13T10:48:40.225Z,65.45
2022-12-13T10:51:12.645Z,65.56
2022-12-13T10:53:48.361Z,64.81
2022-12-13T10:56:24.063Z,65.23
2022-12-13T10:59:23.338Z,64.60
2022-12-13T11:01:52.440Z,64.18
2022-12-13T11:04:28.465Z,64.11
2022-12-13T11:07:02.906Z,64.01
2022-12-13T11:09:38.650Z,63.14
2022-12-13T11:12:29.082Z,63.26
2022-12-13T11:15:03.844Z,63.13
2022-12-13T11:17:38.048Z,63.29
2022-12-13T11:20:08.656Z,64.35
2022-12-13T11:22:39.509Z,64.90
2022-12-13T11:25:31.551Z,64.50
2022-12-13T11:28:27.878Z,64.65
2022-12-13T11:31:04.774Z,65.10
2022-12-13T11:34:04.664Z,64.15
2022-12-13T11:36:56.525Z,64.01
2022-12-13T11:39:27.614Z,65.14
2022-12-13T11:42:22.888Z,65.43
2022-12-13T11:45:08.286Z,65.62
2022-12-13T11:48:04.371Z,64.97
2022-12-13T11:50:44.242Z,65.04
2022-12-13T11:53:32.085Z,66.32
2022-12-13T11:56:12.016Z,66.34
2022-12-13T11:59:05.865Z,64.88
2022-12-13T12:02:05.058Z,66.05
2022-12-13T12:04:58.099Z,66.49
2022-12-13T12:08:05.054Z,66.56
2022-12-13T12:10:45.701Z,66.13
2022-12-13T12:13:33.718Z,65.47
2022-12-13T12:16:32.440Z,65.38
2022-12-13T12:19:02.389Z,65.36
2022-12-13T12:22:12.292Z,64.08
2022-12-13T12:24:54.226Z,65.09
2022-12-13T12:27:48.188Z,64.19
2022-12-13T12:30:23.762Z,65.69
2022-12-13T12:33:05.605Z,64.74
2022-12-13T12:35:53.625Z,63.52
2022-12-13T12:38:52.551Z,64.34
2022-12-13T12:41:30.254Z,65.31
2022-12-13T12:44:30.803Z,64.79
2022-12-13T12:47:49.032Z,64.91
2022-12-13T12:50:42.855Z,63.93
2022-12-13T12:53:30.473Z,64.31
2022-12-13T12:55:58.378Z,63.88
2022-12-13T12:58:37.466Z,64.25
2022-12-13T13:01:14.790Z,63.30
2022-12-13T13:03:44.985Z,62.60
2022-12-13T13:06:22.151Z,63.39
2022-12-13T13:08:56.843Z,63.01
2022-12-13T13:11:28.917Z,62.04
2022-12-13T13:14:21.874Z,61.74
2022-12-13T13:16:50.030Z,61.83
2022-12-13T13:19:25.755Z,61.80
2022-12-13T13:22:02.082Z,61.97
2022-12-13T13:24:35.635Z,62.25
2022-12-13T13:27:09.756Z,62.54
2022-12-13T13:29:43.855Z,62.74
2022-12-13T13:32:12.361Z,62.97
2022-12-13T13:35:33.015Z,63.00
2022-12-13T13:38:25.389Z,62.93
2022-12-13T13:40:55.045Z,62.49
2022-12-13T13:43:32.899Z,62.69
2022-12-13T13:46:12.086Z,62.79
2022-12-13T13:48:40.736Z,62.38
2022-12-13T13:51:30.443Z,62.65
2022-12-13T13:54:20.053Z,62.39
2022-12-13T13:57:28.895Z,62.14
2022-12-13T14:00:18.297Z,63.48
2022-12-13T14:03:22.081Z,63.70
2022-12-13T14:06:36.232Z,64.17
2022-12-13T14:09:50.462Z,63.98
2022-12-13T14:12:42.663Z,63.04
2022-12-13T14:15:59.950Z,63.96
2022-12-13T14:19:05.103Z,65.23
2022-12-13T14:21:46.419Z,64.32
2022-12-13T14:24:30.562Z,64.30
2022-12-13T14:27:14.130Z,63.89
2022-12-13T14:29:57.628Z,64.07
2022-12-13T14:32:30.335Z,64.58
2022-12-13T14:35:25.586Z,64.68
2022-12-13T14:38:05.724Z,63.76
2022-12-13T14:40:37.194Z,64.17
2022-12-13T14:43:05.687Z,64.06
2022-12-13T14:45:37.226Z,62.92
2022-12-13T14:48:14.320Z,62.86
2022-12-13T14:50:45.245Z,62.84
2022-12-13T14:53:37.870Z,63.08
2022-12-13T14:56:28.740Z,63.98
2022-12-13T14:59:03.642Z,63.27
2022-12-13T15:01:35.645Z,63.39
2022-12-13T15:04:23.067Z,63.38
2022-12-13T15:07:06.694Z,62.43
2022-12-13T15:09:41.137Z,61.83
2022-12-13T15:12:24.302Z,61.65
2022-12-13T15:15:02.547Z,63.24
2022-12-13T15:17:36.430Z,62.69
2022-12-13T15:20:31.352Z,62.88
2022-12-13T15:23:48.625Z,62.98
2022-12-13T15:26:29.085Z,63.08
2022-12-13T15:29:10.277Z,63.30
2022-12-13T15:31:41.455Z,63.34
2022-12-13T15:34:30.870Z,63.15
2022-12-13T15:37:28.013Z,62.43
2022-12-13T15:40:08.018Z,62.91
2022-12-13T15:42:44.097Z,63.14
2022-12-13T15:45:22.988Z,63.51
2022-12-13T15:47:54.695Z,63.22
2022-12-13T15:50:31.314Z,63.20
2022-12-13T15:53:17.215Z,62.50
2022-12-13T15:55:47.025Z,62.42
2022-12-13T15:58:28.148Z,62.44
2022-12-13T16:00:57.268Z,63.15
2022-12-13T16:03:27.628Z,63.45
2022-12-13T16:05:57.931Z,63.31
2022-12-13T16:08:32.833Z,64.06
2022-12-13T16:11:02.508Z,64.01
2022-12-13T16:13:37.409Z,64.77
2022-12-13T16:16:28.419Z,64.53
2022-12-13T16:19:00.326Z,64.52
2022-12-13T16:21:30.259Z,64.91
2022-12-13T16:23:58.757Z,64.60
2022-12-13T16:26:29.779Z,64.96
2022-12-13T16:28:59.876Z,65.79
2022-12-13T16:31:36.170Z,65.55
2022-12-13T16:34:05.982Z,65.98
2022-12-13T16:36:34.861Z,66.00
2022-12-13T16:39:10.528Z,65.37
2022-12-13T16:41:42.919Z,65.04
2022-12-13T16:44:22.302Z,65.39
2022-12-13T16:47:11.403Z,66.50
2022-12-13T16:49:39.569Z,66.15
2022-12-13T16:52:08.529Z,67.11
2022-12-13T16:54:37.017Z,66.68
2022-12-13T16:57:05.117Z,66.96
2022-12-13T16:59:33.566Z,67.50
2022-12-13T17:02:01.682Z,67.52
2022-12-13T17:04:30.119Z,67.46
2022-12-13T17:06:58.185Z,68.07
2022-12-13T17:09:26.890Z,68.54
2022-12-13T17:11:55.060Z,67.87
2022-12-13T17:14:23.717Z,68.44
2022-12-13T17:16:51.836Z,67.99
2022-12-13T17:19:20.532Z,67.99
2022-12-13T17:21:49.326Z,66.64
2022-12-13T17:24:19.076Z,65.91
2022-12-13T17:26:54.831Z,64.61
2022-12-13T17:29:25.422Z,63.78
2022-12-13T17:31:53.758Z,63.32
2022-12-13T17:34:23.449Z,63.04
2022-12-13T17:36:51.551Z,62.91
2022-12-13T17:39:20.307Z,63.14
2022-12-13T17:41:55.094Z,62.30
2022-12-13T17:44:25.980Z,62.69
2022-12-13T17:46:55.724Z,63.12
2022-12-13T17:49:25.253Z,63.37
2022-12-13T17:51:54.737Z,63.20
2022-12-13T17:54:25.633Z,63.60
2022-12-13T17:56:54.702Z,63.14
2022-12-13T17:59:23.626Z,63.22
2022-12-13T18:01:52.003Z,63.75
2022-12-13T18:04:22.413Z,62.63
2022-12-13T18:06:52.485Z,63.06
2022-12-13T18:09:20.985Z,62.85
2022-12-13T18:11:49.111Z,63.98
2022-12-13T18:14:18.639Z,62.93
2022-12-13T18:16:47.063Z,63.03
2022-12-13T18:19:15.634Z,62.50
2022-12-13T18:21:43.944Z,63.15
2022-12-13T18:24:13.019Z,62.37
2022-12-13T18:26:41.228Z,61.41
2022-12-13T18:29:09.858Z,62.16
2022-12-13T18:31:38.583Z,62.76
2022-12-13T18:34:09.452Z,64.64
2022-12-13T18:36:39.991Z,63.72
2022-12-13T18:39:08.434Z,64.19
2022-12-13T18:41:36.644Z,64.81
2022-12-13T18:44:11.545Z,63.59
2022-12-13T18:46:44.752Z,64.75
2022-12-13T18:49:14.654Z,64.30
2022-12-13T18:51:43.025Z,63.70
2022-12-13T18:54:12.665Z,63.37
2022-12-13T18:56:41.228Z,62.75
2022-12-13T18:59:12.559Z,62.26
2022-12-13T19:01:40.766Z,63.33
2022-12-13T19:04:09.180Z,63.97
2022-12-13T19:06:37.400Z,62.95
2022-12-13T19:09:07.207Z,63.02
2022-12-13T19:11:35.549Z,63.16
2022-12-13T19:14:04.314Z,62.84
2022-12-13T19:16:32.644Z,63.72
2022-12-13T19:19:01.785Z,63.98
2022-12-13T19:21:29.941Z,64.24
2022-12-13T19:24:01.294Z,63.91
2022-12-13T19:26:31.879Z,64.70
2022-12-13T19:29:02.335Z,64.20
2022-12-13T19:31:32.569Z,64.59
2022-12-13T19:34:02.567Z,64.64
2022-12-13T19:36:32.431Z,67.08
2022-12-13T19:39:01.875Z,66.47
2022-12-13T19:41:32.438Z,65.31
2022-12-13T19:44:04.005Z,64.63
2022-12-13T19:46:33.435Z,65.82
2022-12-13T19:49:01.904Z,65.97
2022-12-13T19:51:35.939Z,66.14
2022-12-13T19:54:08.199Z,66.60
2022-12-13T19:56:36.740Z,67.83
2022-12-13T19:59:05.465Z,68.64
2022-12-13T20:01:33.671Z,68.32
2022-12-13T20:04:02.530Z,68.56
2022-12-13T20:06:30.744Z,68.82
2022-12-13T20:08:59.215Z,69.16
2022-12-13T20:11:27.875Z,68.80
2022-12-13T20:13:57.601Z,68.73
2022-12-13T20:16:27.766Z,67.82
2022-12-13T20:18:59.141Z,68.19
2022-12-13T20:21:28.660Z,68.54
2022-12-13T20:23:58.210Z,67.76
2022-12-13T20:26:29.196Z,68.42
2022-12-13T20:28:58.514Z,69.79
2022-12-13T20:31:32.215Z,71.25
2022-12-13T20:34:03.942Z,74.46
2022-12-13T20:36:32.103Z,76.68
2022-12-13T20:39:03.052Z,75.83
2022-12-13T20:41:34.015Z,75.32
2022-12-13T20:44:05.421Z,75.76
2022-12-13T20:46:34.367Z,77.01
2022-12-13T20:49:05.644Z,76.09
2022-12-13T20:51:35.245Z,75.45
2022-12-13T20:54:05.092Z,75.69
2022-12-13T20:56:37.389Z,76.56
2022-12-13T20:59:09.132Z,75.33
2022-12-13T21:01:40.137Z,74.41
2022-12-13T21:04:11.397Z,74.41
2022-12-13T21:06:42.614Z,74.08
2022-12-13T21:09:13.071Z,73.65
2022-12-13T21:11:44.564Z,71.96
2022-12-13T21:14:26.501Z,69.12
2022-12-13T21:17:00.127Z,69.37
2022-12-13T21:19:39.491Z,68.59
2022-12-13T21:22:08.367Z,69.26
2022-12-13T21:24:36.879Z,68.53
2022-12-13T21:27:06.034Z,68.21
2022-12-13T21:29:34.504Z,67.28
2022-12-13T21:32:03.255Z,65.93
2022-12-13T21:34:31.842Z,65.65
2022-12-13T21:37:00.780Z,65.75
2022-12-13T21:39:29.540Z,64.74
2022-12-13T21:41:58.528Z,63.84
2022-12-13T21:44:27.431Z,63.94
2022-12-13T21:47:13.202Z,64.27
2022-12-13T21:49:57.436Z,64.36
2022-12-13T21:52:49.911Z,62.98
2022-12-13T21:58:25.102Z,61.18
2022-12-13T22:00:53.942Z,61.60
2022-12-13T22:03:21.839Z,61.94
2022-12-13T22:05:50.160Z,61.89
2022-12-13T22:08:18.204Z,62.04
2022-12-13T22:11:05.248Z,62.95
2022-12-13T22:13:33.303Z,63.00
2022-12-13T22:16:01.691Z,63.43
2022-12-13T22:18:29.895Z,63.56
2022-12-13T22:20:59.363Z,63.61
2022-12-13T22:23:27.395Z,63.61
2022-12-13T22:25:56.142Z,64.13
2022-12-13T22:28:24.479Z,64.12
2022-12-13T22:30:54.074Z,63.37
2022-12-13T22:33:22.296Z,62.83
2022-12-13T22:35:50.716Z,63.00
2022-12-13T22:38:19.586Z,63.23
2022-12-13T22:40:48.223Z,63.42
2022-12-13T22:43:20.454Z,63.52
2022-12-13T22:45:49.384Z,64.36
2022-12-13T22:48:17.546Z,64.21
2022-12-13T22:50:45.972Z,64.25
2022-12-13T22:53:13.863Z,63.70
2022-12-13T22:55:42.244Z,64.08
2022-12-13T22:58:10.281Z,64.48
2022-12-13T23:00:38.709Z,64.06
2022-12-13T23:03:07.074Z,63.51
2022-12-13T23:05:35.984Z,63.86
2022-12-13T23:08:04.282Z,63.95
2022-12-13T23:10:51.040Z,63.49
2022-12-13T23:13:19.040Z,63.28
2022-12-13T23:15:49.497Z,63.64
2022-12-13T23:18:17.815Z,63.64
2022-12-13T23:20:46.106Z,63.71
2022-12-13T23:23:16.551Z,63.72
2022-12-13T23:25:45.000Z,64.53
2022-12-13T23:28:17.130Z,64.60
2022-12-13T23:30:45.521Z,65.04
2022-12-13T23:33:13.650Z,64.28
2022-12-13T23:35:42.016Z,64.63
2022-12-13T23:38:10.060Z,65.51
2022-12-13T23:40:38.553Z,65.01
2022-12-13T23:43:06.559Z,64.82
2022-12-13T23:45:34.882Z,64.53
2022-12-13T23:48:02.925Z,64.38
2022-12-13T23:50:31.407Z,63.78
2022-12-13T23:52:59.405Z,63.95
2022-12-13T23:55:27.887Z,62.84
2022-12-13T23:57:56.128Z,63.36
